Time;durP1;ratioP1;P1;durP2;ratioP2;P2;SDS_P1;SDS_P2;PMS_P1;PMS_P2;Temp;Humidity;BMP_temperature;BMP_pressure;BME280_temperature;BME280_humidity;BME280_pressure;Samples;Min_cycle;Max_cycle;Signal;HPM_P1;HPM_P2
2020/12/07 00:03:15;;;;;;;1.90;1.70;;;17.80;33.50;;;;;;8297931;28;20403;-47
2020/12/07 00:07:16;;;;;;;2.30;2.10;;;17.80;33.50;;;;;;8270446;28;20137;-47
2020/12/07 00:11:16;;;;;;;2.10;1.90;;;17.80;33.40;;;;;;8277908;28;20029;-47
2020/12/07 00:15:17;;;;;;;2.10;1.67;;;17.80;33.50;;;;;;8297938;28;20514;-46
2020/12/07 00:19:17;;;;;;;2.23;1.80;;;17.80;33.50;;;;;;8330610;28;20044;-50
2020/12/07 00:23:18;;;;;;;1.93;1.80;;;17.80;33.50;;;;;;8300965;28;20418;-47
2020/12/07 00:27:30;;;;;;;1.80;1.70;;;17.70;33.40;;;;;;8310513;28;20136;-46
2020/12/07 00:31:33;;;;;;;2.22;2.03;;;17.70;33.40;;;;;;8292519;28;20041;-46
2020/12/07 00:35:33;;;;;;;2.00;1.80;;;17.70;33.40;;;;;;8299094;28;20442;-47
2020/12/07 00:39:35;;;;;;;2.40;2.17;;;17.70;33.40;;;;;;8292424;28;20038;-47
2020/12/07 00:43:35;;;;;;;2.13;1.95;;;17.70;33.40;;;;;;8272883;28;20042;-47
2020/12/07 00:47:36;;;;;;;2.10;1.90;;;17.70;33.40;;;;;;8262064;28;20590;-48
2020/12/07 00:51:36;;;;;;;2.57;2.13;;;17.70;33.40;;;;;;8262225;28;20089;-48
2020/12/07 00:55:37;;;;;;;2.10;1.87;;;17.70;33.40;;;;;;8298492;28;20072;-47
2020/12/07 00:59:37;;;;;;;2.00;1.80;;;17.70;33.40;;;;;;8268035;28;20069;-46
2020/12/07 01:03:38;;;;;;;2.07;1.80;;;17.70;33.40;;;;;;8285671;28;20038;-47
2020/12/07 01:07:39;;;;;;;1.87;1.77;;;17.70;33.40;;;;;;8289793;28;20053;-47
2020/12/07 01:11:43;;;;;;;2.00;1.80;;;17.70;33.40;;;;;;8298068;28;20076;-46
2020/12/07 01:15:44;;;;;;;1.73;1.60;;;17.70;33.40;;;;;;8262473;28;20510;-46
2020/12/07 01:19:45;;;;;;;2.00;1.80;;;17.70;33.40;;;;;;8281560;28;20040;-47
2020/12/07 01:23:45;;;;;;;2.10;1.90;;;17.70;33.40;;;;;;8282707;28;20070;-47
2020/12/07 01:27:46;;;;;;;1.80;1.63;;;17.70;33.40;;;;;;8258852;28;20047;-47
2020/12/07 01:31:46;;;;;;;2.27;2.07;;;17.70;33.40;;;;;;8275756;28;20453;-47
2020/12/07 01:35:47;;;;;;;2.30;2.10;;;17.70;33.40;;;;;;8316143;28;20034;-46
2020/12/07 01:39:47;;;;;;;3.40;1.90;;;17.70;33.40;;;;;;8309015;28;20425;-47
2020/12/07 01:43:48;;;;;;;2.00;1.80;;;17.70;33.40;;;;;;8292757;28;20103;-47
2020/12/07 01:47:49;;;;;;;1.87;1.77;;;17.70;33.40;;;;;;8296973;28;20387;-46
2020/12/07 01:51:50;;;;;;;2.37;2.17;;;17.70;33.40;;;;;;8287813;28;20436;-47
2020/12/07 01:55:52;;;;;;;3.50;1.95;;;17.70;33.40;;;;;;8271260;28;20038;-47
2020/12/07 01:59:53;;;;;;;2.13;1.92;;;17.70;33.40;;;;;;8292442;28;20041;-47
2020/12/07 02:03:54;;;;;;;2.37;2.03;;;17.70;33.40;;;;;;8291627;28;20440;-46
2020/12/07 02:08:18;;;;;;;2.22;1.88;;;17.70;33.40;;;;;;8271881;28;20803;-46
2020/12/07 02:12:18;;;;;;;2.47;1.90;;;17.70;33.40;;;;;;8316218;28;20034;-47
2020/12/07 02:16:19;;;;;;;2.13;1.90;;;17.70;33.40;;;;;;8308791;28;20043;-46
2020/12/07 02:20:19;;;;;;;1.63;1.50;;;17.60;33.40;;;;;;8276822;28;20496;-47
2020/12/07 02:24:20;;;;;;;2.43;1.73;;;17.60;33.40;;;;;;8263907;28;20037;-46
2020/12/07 02:28:20;;;;;;;2.53;2.20;;;17.60;33.40;;;;;;8257949;28;20046;-47
2020/12/07 02:32:21;;;;;;;2.40;2.20;;;17.70;33.40;;;;;;8274707;28;20045;-46
2020/12/07 02:36:21;;;;;;;3.23;2.30;;;17.60;33.40;;;;;;8268333;28;20089;-46
2020/12/07 02:40:22;;;;;;;1.77;1.60;;;17.60;33.30;;;;;;8294085;28;20045;-46
2020/12/07 02:44:22;;;;;;;2.13;1.93;;;17.60;33.30;;;;;;8291946;28;20061;-47
2020/12/07 02:48:23;;;;;;;2.47;2.00;;;17.60;33.30;;;;;;8291439;28;20061;-46
2020/12/07 02:52:24;;;;;;;2.47;1.93;;;17.60;33.30;;;;;;8294651;28;20112;-46
2020/12/07 02:56:25;;;;;;;2.10;1.90;;;17.60;33.30;;;;;;8272348;28;20038;-46
2020/12/07 03:00:25;;;;;;;2.00;1.80;;;17.60;33.30;;;;;;8334975;28;20079;-46
2020/12/07 03:04:26;;;;;;;2.33;2.07;;;17.60;33.30;;;;;;8302591;28;20037;-46
2020/12/07 03:08:26;;;;;;;2.03;1.83;;;17.60;33.30;;;;;;8298040;28;20136;-48
2020/12/07 03:12:27;;;;;;;3.53;2.17;;;17.60;33.30;;;;;;8295825;28;20069;-44
2020/12/07 03:16:28;;;;;;;2.00;1.80;;;17.60;33.40;;;;;;8293503;28;20444;-47
2020/12/07 03:20:28;;;;;;;2.63;1.83;;;17.60;33.30;;;;;;8281202;28;20042;-46
2020/12/07 03:24:29;;;;;;;1.80;1.70;;;17.60;33.30;;;;;;8271473;28;20053;-45
2020/12/07 03:28:29;;;;;;;2.63;1.87;;;17.60;33.30;;;;;;8296476;28;20038;-47
2020/12/07 03:32:30;;;;;;;2.40;2.10;;;17.60;33.30;;;;;;8299172;28;20049;-45
2020/12/07 03:36:31;;;;;;;2.07;1.73;;;17.60;33.30;;;;;;8305397;28;20037;-46
2020/12/07 03:40:35;;;;;;;2.50;2.00;;;17.60;33.30;;;;;;8328887;28;20041;-47
2020/12/07 03:44:35;;;;;;;2.08;1.88;;;17.60;33.30;;;;;;8310691;28;20034;-47
2020/12/07 03:48:36;;;;;;;1.70;1.60;;;17.60;33.30;;;;;;8318493;28;20049;-50
2020/12/07 03:52:37;;;;;;;1.90;1.73;;;17.60;33.30;;;;;;8310352;28;20037;-47
2020/12/07 03:56:37;;;;;;;1.93;1.73;;;17.60;33.30;;;;;;8301584;28;20491;-46
2020/12/07 04:00:38;;;;;;;2.27;1.83;;;17.60;33.30;;;;;;8294291;28;20034;-47
2020/12/07 04:04:45;;;;;;;2.40;1.80;;;17.60;33.30;;;;;;8301685;28;20489;-47
2020/12/07 04:08:45;;;;;;;2.25;1.73;;;17.60;33.30;;;;;;8313611;28;20053;-46
2020/12/07 04:12:46;;;;;;;1.97;1.67;;;17.60;33.30;;;;;;8262465;28;20511;-47
2020/12/07 04:16:46;;;;;;;2.37;2.07;;;17.60;33.30;;;;;;8262830;28;20049;-47
2020/12/07 04:20:47;;;;;;;2.70;2.00;;;17.60;33.30;;;;;;8274761;28;20038;-47
2020/12/07 04:24:48;;;;;;;2.53;1.80;;;17.60;33.40;;;;;;8294613;28;20041;-47
2020/12/07 04:28:49;;;;;;;1.70;1.60;;;17.60;33.40;;;;;;8299189;28;20062;-47
2020/12/07 04:32:50;;;;;;;2.20;2.00;;;17.70;33.50;;;;;;8319659;28;20033;-47
2020/12/07 04:36:54;;;;;;;2.37;1.60;;;17.70;33.50;;;;;;8306852;28;21423;-46
2020/12/07 04:40:55;;;;;;;1.60;1.50;;;17.80;33.50;;;;;;8274729;28;20030;-46
2020/12/07 04:44:56;;;;;;;2.27;1.90;;;17.80;33.40;;;;;;8298834;28;20026;-47
2020/12/07 04:49:00;;;;;;;1.60;1.50;;;17.80;33.40;;;;;;8292460;28;20415;-46
2020/12/07 04:53:01;;;;;;;1.70;1.60;;;17.90;33.40;;;;;;8294114;28;20069;-46
2020/12/07 04:57:01;;;;;;;1.90;1.53;;;17.90;33.30;;;;;;8294198;28;20038;-46
2020/12/07 05:01:02;;;;;;;1.70;1.60;;;17.90;33.30;;;;;;8268580;28;20065;-46
2020/12/07 05:05:05;;;;;;;1.80;1.70;;;17.90;33.30;;;;;;8298565;28;20044;-47
2020/12/07 05:09:05;;;;;;;1.83;1.73;;;17.90;33.30;;;;;;8293806;28;20049;-47
2020/12/07 05:17:25;;;;;;;2.13;1.92;;;17.90;33.20;;;;;;8294535;28;20076;-48
2020/12/07 05:21:26;;;;;;;1.95;1.70;;;17.80;33.20;;;;;;8296022;28;20085;-44
2020/12/07 05:25:28;;;;;;;2.73;2.20;;;17.80;33.20;;;;;;8293110;28;20034;-47
2020/12/07 05:29:38;;;;;;;;;;;17.80;33.20;;;;;;8293541;28;20064;-47
2020/12/07 05:33:40;;;;;;;3.25;2.00;;;17.80;33.30;;;;;;8293665;28;19909;-47
2020/12/07 05:37:41;;;;;;;1.90;1.70;;;17.70;33.20;;;;;;8295432;28;20173;-47
2020/12/07 05:41:42;;;;;;;2.37;1.80;;;17.70;33.20;;;;;;8311454;28;20037;-47
2020/12/07 05:45:44;;;;;;;1.85;1.67;;;17.70;33.30;;;;;;8265219;28;20480;-46
2020/12/07 05:49:50;;;;;;;1.98;1.80;;;17.70;33.30;;;;;;8259922;28;20046;-46
2020/12/07 05:53:52;;;;;;;2.15;1.75;;;17.60;33.30;;;;;;8279687;28;20041;-46
2020/12/07 05:58:04;;;;;;;2.72;1.42;;;17.70;33.30;;;;;;8295514;28;20349;-47
2020/12/07 06:02:09;;;;;;;1.92;1.77;;;17.60;33.30;;;;;;8293109;28;20034;-46
2020/12/07 06:06:09;;;;;;;1.85;1.55;;;17.70;33.40;;;;;;8292201;28;20034;-47
2020/12/07 06:10:13;;;;;;;1.70;1.60;;;17.70;33.40;;;;;;8303343;28;20505;-46
2020/12/07 06:14:13;;;;;;;2.03;1.83;;;17.70;33.40;;;;;;8323690;28;20083;-47
2020/12/07 06:18:27;;;;;;;2.73;1.97;;;17.70;33.40;;;;;;8329407;28;20033;-47
2020/12/07 06:22:28;;;;;;;2.00;1.73;;;17.80;33.40;;;;;;8285917;28;20469;-46
2020/12/07 06:26:29;;;;;;;2.63;1.80;;;17.80;33.30;;;;;;8279299;28;20089;-47
2020/12/07 06:30:36;;;;;;;2.70;1.83;;;17.80;33.30;;;;;;8272084;28;20038;-46
2020/12/07 06:34:41;;;;;;;1.60;1.50;;;17.80;33.30;;;;;;8276819;28;20030;-46
2020/12/07 06:38:43;;;;;;;2.13;1.92;;;17.80;33.30;;;;;;8302852;28;20030;-46
2020/12/07 06:42:45;;;;;;;1.75;1.52;;;17.80;33.30;;;;;;8270017;28;20039;-47
2020/12/07 06:46:47;;;;;;;2.15;1.95;;;17.80;33.30;;;;;;8290946;28;20621;-47
2020/12/07 06:50:50;;;;;;;2.55;1.92;;;17.80;33.20;;;;;;8310506;28;20034;-47
2020/12/07 06:55:12;;;;;;;2.13;1.92;;;17.80;33.20;;;;;;8300514;28;20038;-49
2020/12/07 06:59:12;;;;;;;2.70;2.10;;;17.80;33.20;;;;;;8267071;28;20120;-46
2020/12/07 07:03:13;;;;;;;2.07;1.90;;;17.80;33.20;;;;;;8265373;28;20035;-47
2020/12/07 07:07:19;;;;;;;3.33;2.00;;;17.70;33.20;;;;;;8263554;28;20125;-46
2020/12/07 07:11:19;;;;;;;2.33;2.13;;;17.70;33.30;;;;;;8264958;28;20391;-47
2020/12/07 07:15:20;;;;;;;2.73;2.33;;;17.70;33.30;;;;;;8268617;28;20037;-47
2020/12/07 07:19:21;;;;;;;2.53;2.10;;;17.70;33.30;;;;;;8287500;28;20030;-46
2020/12/07 07:23:21;;;;;;;2.73;2.20;;;17.70;33.30;;;;;;8264584;28;20034;-47
2020/12/07 07:31:42;;;;;;;2.40;2.20;;;17.70;33.40;;;;;;8299762;28;20083;-47
2020/12/07 07:35:42;;;;;;;3.70;2.53;;;17.60;33.30;;;;;;8277862;28;20046;-46
2020/12/07 07:39:47;;;;;;;3.07;2.47;;;17.70;33.40;;;;;;8285670;28;20495;-46
2020/12/07 07:43:48;;;;;;;3.90;3.10;;;17.70;33.40;;;;;;8264288;28;20062;-47
2020/12/07 08:18:03;;;;;;;4.35;3.22;;;17.90;33.30;;;;;;8299712;28;20390;-46
2020/12/07 08:22:14;;;;;;;4.33;3.20;;;17.90;33.30;;;;;;8264084;28;20069;-46
2020/12/07 08:26:19;;;;;;;3.45;2.88;;;17.90;33.30;;;;;;8262580;28;20416;-47
2020/12/07 08:30:19;;;;;;;3.22;2.70;;;17.90;33.30;;;;;;8262541;28;20239;-47
2020/12/07 08:34:29;;;;;;;3.43;2.90;;;17.80;33.20;;;;;;8260946;28;20030;-47
2020/12/07 08:38:36;;;;;;;3.75;3.15;;;17.80;33.30;;;;;;8267049;28;20040;-47
2020/12/07 08:42:37;;;;;;;3.25;2.63;;;17.80;33.30;;;;;;8260747;28;20506;-47
2020/12/07 08:46:39;;;;;;;3.97;3.27;;;17.80;33.30;;;;;;8271499;28;20045;-47
2020/12/07 08:50:39;;;;;;;3.40;2.95;;;17.80;33.30;;;;;;8294240;28;20482;-48
2020/12/07 08:54:40;;;;;;;3.30;2.93;;;17.70;33.30;;;;;;8295101;28;20036;-46
2020/12/07 08:58:41;;;;;;;3.43;2.70;;;17.70;33.30;;;;;;8261989;28;20518;-47
2020/12/07 09:02:41;;;;;;;3.60;3.03;;;17.70;33.40;;;;;;8261605;28;20049;-46
2020/12/07 09:06:44;;;;;;;4.17;3.00;;;17.70;33.40;;;;;;8272659;28;20148;-47
2020/12/07 09:10:45;;;;;;;3.75;2.67;;;17.70;33.50;;;;;;8325375;28;20038;-46
2020/12/07 09:14:45;;;;;;;3.80;2.97;;;17.70;33.40;;;;;;8311787;28;20137;-46
2020/12/07 09:18:46;;;;;;;3.97;3.20;;;17.70;33.40;;;;;;8290831;28;20038;-46
2020/12/07 09:22:46;;;;;;;4.53;3.33;;;17.80;33.40;;;;;;8278490;28;20030;-46
2020/12/07 09:26:47;;;;;;;3.93;3.10;;;17.80;33.40;;;;;;8261298;28;20155;-46
2020/12/07 09:30:47;;;;;;;3.03;2.77;;;17.80;33.40;;;;;;8263527;28;20046;-46
2020/12/07 09:34:48;;;;;;;3.93;3.07;;;17.90;33.50;;;;;;8260539;28;20034;-47
2020/12/07 09:38:48;;;;;;;5.90;3.83;;;17.90;33.40;;;;;;8260533;28;20042;-46
2020/12/07 09:42:49;;;;;;;5.13;4.63;;;17.90;33.30;;;;;;8261895;28;20042;-47
2020/12/07 09:46:52;;;;;;;4.63;4.10;;;17.90;33.30;;;;;;8296836;28;20125;-47
2020/12/07 09:50:52;;;;;;;5.65;4.35;;;17.90;33.30;;;;;;8292446;28;20042;-47
2020/12/07 09:54:53;;;;;;;5.60;4.47;;;17.90;33.30;;;;;;8290995;28;20104;-46
2020/12/07 09:58:53;;;;;;;5.10;4.43;;;17.90;33.30;;;;;;8292266;28;20037;-47
2020/12/07 10:02:54;;;;;;;7.10;4.47;;;17.90;33.30;;;;;;8272455;28;20491;-47
2020/12/07 10:06:54;;;;;;;5.83;5.10;;;17.90;33.30;;;;;;8286936;28;20041;-46
2020/12/07 10:10:55;;;;;;;5.63;4.70;;;17.90;33.30;;;;;;8259648;28;20038;-47
2020/12/07 10:14:55;;;;;;;4.83;4.33;;;17.80;33.30;;;;;;8280017;28;20120;-46
2020/12/07 10:18:56;;;;;;;6.43;4.20;;;17.80;33.30;;;;;;8290451;28;20066;-46
2020/12/07 10:22:56;;;;;;;5.33;4.20;;;17.80;33.30;;;;;;8296389;28;20041;-46
2020/12/07 10:26:57;;;;;;;8.73;4.83;;;17.80;33.30;;;;;;8291880;28;20046;-46
2020/12/07 10:30:58;;;;;;;4.70;3.93;;;17.80;33.30;;;;;;8290475;28;20045;-47
2020/12/07 10:34:58;;;;;;;6.30;4.17;;;17.80;33.40;;;;;;8279215;28;20678;-49
2020/12/07 10:38:59;;;;;;;4.50;4.07;;;17.70;33.40;;;;;;8281904;28;20370;-48
2020/12/07 10:42:59;;;;;;;6.33;4.90;;;17.70;33.50;;;;;;8292340;28;20049;-46
2020/12/07 10:47:00;;;;;;;4.77;3.90;;;17.80;33.50;;;;;;8291725;28;20046;-47
2020/12/07 10:51:00;;;;;;;6.10;4.50;;;17.80;33.50;;;;;;8291729;28;20034;-47
2020/12/07 10:55:01;;;;;;;5.37;4.13;;;17.80;33.50;;;;;;8284999;28;20038;-46
2020/12/07 10:59:01;;;;;;;3.67;3.37;;;17.90;33.40;;;;;;8276309;28;20026;-47
2020/12/07 11:03:03;;;;;;;4.20;3.80;;;17.90;33.70;;;;;;8296308;28;20509;-47
2020/12/07 11:07:08;;;;;;;6.63;4.05;;;17.90;33.40;;;;;;8288904;28;20045;-46
2020/12/07 11:11:09;;;;;;;5.75;3.88;;;18.00;33.40;;;;;;8284170;28;20030;-46
2020/12/07 11:15:09;;;;;;;5.50;4.33;;;18.00;33.40;;;;;;8291083;28;20454;-46
2020/12/07 11:19:10;;;;;;;4.60;4.00;;;18.00;33.30;;;;;;8265279;28;20093;-46
2020/12/07 11:23:10;;;;;;;7.83;4.27;;;18.10;33.40;;;;;;8299238;28;20065;-47
2020/12/07 11:27:11;;;;;;;5.53;4.00;;;18.10;33.30;;;;;;8295417;28;20089;-46
2020/12/07 11:31:13;;;;;;;7.00;4.60;;;18.00;33.30;;;;;;8262530;28;20038;-48
2020/12/07 11:35:13;;;;;;;6.00;5.30;;;18.00;33.30;;;;;;8268872;28;20038;-47
2020/12/07 11:43:42;;;;;;;7.15;4.20;;;18.00;33.30;;;;;;8280098;28;20092;-46
2020/12/07 11:47:42;;;;;;;6.05;4.35;;;18.00;33.30;;;;;;8305571;28;20038;-46
2020/12/07 11:51:43;;;;;;;6.73;4.70;;;18.00;33.40;;;;;;8272412;28;20048;-47
2020/12/07 11:55:46;;;;;;;7.80;4.60;;;18.00;33.40;;;;;;8263922;28;20043;-47
2020/12/07 11:59:47;;;;;;;5.18;4.30;;;17.90;33.40;;;;;;8263599;28;20030;-47
2020/12/07 12:03:47;;;;;;;5.00;4.47;;;17.90;33.40;;;;;;8277084;28;20422;-48
2020/12/07 12:07:48;;;;;;;5.60;4.20;;;17.90;33.40;;;;;;8314158;28;20149;-47
2020/12/07 12:11:48;;;;;;;4.43;4.03;;;17.90;33.50;;;;;;8267453;28;20129;-47
2020/12/07 12:15:51;;;;;;;5.30;4.07;;;17.90;33.50;;;;;;8261418;28;20034;-46
2020/12/07 12:19:52;;;;;;;5.30;3.95;;;17.90;33.60;;;;;;8263997;28;20499;-46
2020/12/07 12:23:53;;;;;;;4.83;3.70;;;17.80;33.50;;;;;;8262431;28;20030;-47
2020/12/07 12:27:53;;;;;;;6.17;4.23;;;17.90;33.60;;;;;;8293285;28;20054;-47
2020/12/07 12:31:54;;;;;;;6.27;4.03;;;17.90;33.60;;;;;;8283026;28;20042;-50
2020/12/07 12:35:54;;;;;;;4.93;3.60;;;17.90;33.60;;;;;;8282266;28;20505;-47
2020/12/07 12:39:55;;;;;;;4.60;4.20;;;17.90;33.50;;;;;;8292733;28;20116;-47
2020/12/07 12:43:55;;;;;;;4.33;3.70;;;18.00;33.50;;;;;;8293486;28;20034;-46
2020/12/07 12:47:56;;;;;;;4.90;3.93;;;18.00;33.50;;;;;;8266486;28;20100;-47
2020/12/07 12:51:56;;;;;;;5.80;4.03;;;18.00;33.50;;;;;;8261254;28;20049;-47
2020/12/07 12:55:57;;;;;;;5.27;3.93;;;18.00;33.50;;;;;;8262132;28;20069;-46
2020/12/07 12:59:58;;;;;;;5.60;3.93;;;18.10;34.00;;;;;;8266262;28;20042;-47
2020/12/07 13:03:58;;;;;;;5.93;4.03;;;18.10;33.50;;;;;;8296707;28;20038;-47
2020/12/07 13:07:59;;;;;;;5.77;4.23;;;18.00;33.40;;;;;;8262242;28;20089;-50
2020/12/07 13:11:59;;;;;;;6.37;3.93;;;18.10;33.50;;;;;;8258503;28;20070;-46
2020/12/07 13:16:03;;;;;;;5.23;3.60;;;18.00;33.40;;;;;;8258207;28;20081;-47
2020/12/07 13:20:07;;;;;;;4.60;4.13;;;18.00;33.40;;;;;;8277224;28;20038;-47
2020/12/07 13:24:17;;;;;;;6.43;3.88;;;18.00;33.40;;;;;;8293487;28;20180;-47
2020/12/07 13:28:18;;;;;;;4.07;3.42;;;18.00;33.50;;;;;;8291512;28;20168;-46
2020/12/07 13:32:19;;;;;;;4.80;3.50;;;17.90;33.40;;;;;;8292834;28;20038;-46
2020/12/07 13:36:20;;;;;;;5.95;3.92;;;17.90;33.50;;;;;;8295952;28;20033;-46
2020/12/07 13:40:20;;;;;;;4.07;3.53;;;17.90;33.50;;;;;;8303739;28;20025;-47
2020/12/07 13:44:21;;;;;;;4.97;4.03;;;17.90;33.50;;;;;;8309435;28;20049;-47
2020/12/07 13:48:21;;;;;;;7.57;4.07;;;17.90;33.50;;;;;;8275632;28;20046;-48
2020/12/07 13:52:22;;;;;;;4.93;3.90;;;17.90;33.60;;;;;;8258534;28;20026;-46
2020/12/07 13:56:23;;;;;;;4.00;3.60;;;17.80;33.60;;;;;;8264433;28;20487;-47
2020/12/07 14:00:23;;;;;;;5.63;3.70;;;17.80;33.70;;;;;;8259732;28;20387;-49
2020/12/07 14:08:24;;;;;;;4.60;3.40;;;17.90;33.80;;;;;;8275680;28;20503;-47
2020/12/07 14:12:25;;;;;;;6.00;4.30;;;17.90;33.80;;;;;;8291834;28;20034;-47
2020/12/07 14:16:29;;;;;;;4.57;3.23;;;17.90;33.80;;;;;;8294695;28;20419;-49
2020/12/07 14:20:39;;;;;;;5.18;3.60;;;18.00;33.90;;;;;;8275704;28;20049;-47
2020/12/07 14:29:23;;;;;;;4.88;3.40;;;18.00;33.90;;;;;;8281419;28;20042;-47
2020/12/07 14:41:51;;;;;;;4.97;3.63;;;18.10;33.80;;;;;;8292290;28;20037;-48
2020/12/07 14:46:01;;;;;;;5.77;3.13;;;18.00;33.70;;;;;;8290542;28;20037;-50
2020/12/07 14:50:09;;;;;;;5.07;3.53;;;18.10;33.70;;;;;;8285191;28;20459;-50
2020/12/07 14:54:17;;;;;;;6.25;3.47;;;18.00;33.70;;;;;;8287687;28;20463;-46
2020/12/07 15:02:56;;;;;;;5.75;3.38;;;18.00;33.70;;;;;;8280730;28;20121;-48
2020/12/07 15:06:57;;;;;;;4.43;3.42;;;18.00;33.80;;;;;;8287870;28;20054;-47
2020/12/07 15:15:04;;;;;;;4.45;2.78;;;17.90;33.70;;;;;;8297880;28;20022;-50
2020/12/07 15:19:04;;;;;;;4.83;3.43;;;17.90;33.80;;;;;;8275760;28;20038;-48
2020/12/07 15:23:05;;;;;;;3.77;3.30;;;17.90;33.80;;;;;;8296932;28;20395;-48
2020/12/07 15:27:06;;;;;;;6.40;3.67;;;17.90;33.80;;;;;;8296794;28;20113;-47
2020/12/07 15:31:09;;;;;;;3.40;3.10;;;17.90;33.90;;;;;;8295171;28;20037;-47
2020/12/07 15:35:09;;;;;;;4.57;3.10;;;17.90;34.00;;;;;;8300933;28;20038;-46
2020/12/07 15:39:10;;;;;;;4.97;3.70;;;17.90;33.90;;;;;;8296506;28;20097;-47
2020/12/07 15:43:13;;;;;;;8.10;3.47;;;17.90;34.10;;;;;;8294790;28;20132;-46
2020/12/07 15:47:15;;;;;;;5.68;3.42;;;17.90;34.00;;;;;;8281793;28;20042;-47
2020/12/07 15:51:16;;;;;;;4.45;3.20;;;17.90;34.00;;;;;;8286338;28;20050;-46
2020/12/07 15:55:17;;;;;;;3.65;3.05;;;17.90;33.90;;;;;;8298884;28;20087;-46
2020/12/07 15:59:18;;;;;;;4.57;2.90;;;18.00;34.00;;;;;;8295008;28;20038;-46
2020/12/07 16:03:19;;;;;;;;;;;18.00;33.90;;;;;;8296228;28;20566;-46
2020/12/07 16:07:19;;;;;;;4.22;2.65;;;18.00;33.90;;;;;;8293886;28;19929;-46
2020/12/07 16:11:20;;;;;;;5.13;3.57;;;18.00;33.90;;;;;;8299800;28;20037;-46
2020/12/07 16:15:21;;;;;;;3.67;3.20;;;18.00;33.90;;;;;;8300282;28;20478;-46
2020/12/07 16:19:21;;;;;;;4.07;2.80;;;18.00;33.80;;;;;;8292793;28;20766;-46
2020/12/07 16:23:22;;;;;;;3.47;3.17;;;18.00;33.80;;;;;;8286238;28;20116;-47
2020/12/07 16:27:22;;;;;;;3.77;3.10;;;18.00;33.90;;;;;;8290875;28;20042;-46
2020/12/07 16:31:27;;;;;;;5.77;3.10;;;17.90;33.80;;;;;;8293691;28;20034;-46
2020/12/07 16:35:28;;;;;;;4.05;3.40;;;17.90;33.80;;;;;;8294827;28;20125;-45
2020/12/07 16:39:29;;;;;;;4.40;3.33;;;18.00;33.90;;;;;;8293143;28;20045;-46
2020/12/07 16:43:29;;;;;;;4.10;2.87;;;17.90;33.80;;;;;;8286128;28;20046;-48
2020/12/07 16:47:32;;;;;;;4.73;2.93;;;17.90;33.80;;;;;;8266478;28;20054;-48
2020/12/07 16:51:33;;;;;;;4.40;3.17;;;17.90;33.80;;;;;;8310805;28;20038;-47
2020/12/07 16:55:33;;;;;;;3.87;2.73;;;17.90;33.80;;;;;;8293399;28;20076;-47
2020/12/07 16:59:34;;;;;;;3.93;3.03;;;17.90;33.80;;;;;;8293556;28;20026;-48
2020/12/07 17:03:35;;;;;;;3.50;2.97;;;17.90;33.90;;;;;;8322215;28;20045;-46
2020/12/07 17:07:36;;;;;;;3.47;3.17;;;17.80;33.90;;;;;;8325603;28;20080;-47
2020/12/07 17:11:36;;;;;;;5.10;3.10;;;17.80;33.90;;;;;;8326020;28;20051;-46
2020/12/07 17:15:37;;;;;;;3.73;3.00;;;17.80;33.90;;;;;;8298742;28;20045;-47
2020/12/07 17:19:37;;;;;;;2.97;2.60;;;17.80;33.90;;;;;;8302767;28;20548;-47
2020/12/07 17:23:38;;;;;;;4.73;3.00;;;17.90;33.90;;;;;;8330456;28;20059;-47
2020/12/07 17:27:38;;;;;;;4.03;2.77;;;17.90;33.90;;;;;;8323674;28;20461;-47
2020/12/07 17:31:40;;;;;;;4.23;2.93;;;18.00;33.90;;;;;;8301064;28;20136;-49
2020/12/07 17:35:40;;;;;;;4.32;2.72;;;17.90;33.80;;;;;;8260649;28;20039;-47
2020/12/07 17:39:41;;;;;;;3.20;2.77;;;18.00;33.80;;;;;;8287695;28;20437;-47
2020/12/07 17:43:41;;;;;;;3.80;2.90;;;18.00;33.80;;;;;;8260494;28;20069;-46
2020/12/07 17:47:42;;;;;;;5.20;2.70;;;18.00;33.70;;;;;;8295786;28;20049;-47
2020/12/07 17:51:42;;;;;;;4.03;2.60;;;18.00;33.70;;;;;;8298838;28;20057;-47
2020/12/07 17:55:43;;;;;;;4.07;2.60;;;18.00;33.70;;;;;;8319578;28;20049;-47
2020/12/07 17:59:44;;;;;;;3.00;2.70;;;18.00;33.70;;;;;;8279640;28;20121;-46
2020/12/07 18:03:44;;;;;;;5.03;2.70;;;18.00;33.70;;;;;;8265704;28;20092;-47
2020/12/07 18:07:45;;;;;;;2.97;2.40;;;17.90;34.30;;;;;;8292562;28;20054;-46
2020/12/07 18:11:45;;;;;;;4.37;2.73;;;17.90;33.70;;;;;;8292162;28;20116;-46
2020/12/07 18:15:47;;;;;;;2.83;2.30;;;17.90;33.70;;;;;;8295116;28;23753;-49
2020/12/07 18:19:47;;;;;;;3.20;2.80;;;17.90;33.80;;;;;;8292368;28;20041;-50
2020/12/07 18:23:48;;;;;;;3.20;2.70;;;17.90;33.80;;;;;;8272602;28;20039;-46
2020/12/07 18:27:48;;;;;;;3.33;2.73;;;17.90;33.80;;;;;;8285036;28;20128;-47
2020/12/07 18:31:49;;;;;;;3.97;2.33;;;17.80;33.80;;;;;;8285175;28;20038;-46
2020/12/07 18:35:49;;;;;;;3.07;2.60;;;17.90;33.80;;;;;;8278737;28;20034;-47
2020/12/07 18:39:50;;;;;;;3.77;2.30;;;17.80;33.80;;;;;;8291282;28;20092;-46
2020/12/07 18:43:52;;;;;;;3.00;2.70;;;17.80;33.90;;;;;;8291902;28;20041;-47
2020/12/07 18:47:53;;;;;;;3.20;2.55;;;17.80;33.90;;;;;;8293851;28;20042;-46
2020/12/07 18:51:54;;;;;;;5.63;2.87;;;17.80;33.90;;;;;;8293212;28;20037;-46
2020/12/07 18:55:55;;;;;;;3.55;2.60;;;17.80;33.90;;;;;;8291722;28;20451;-46
2020/12/07 18:59:55;;;;;;;3.33;2.60;;;17.90;33.90;;;;;;8271423;28;20061;-46
2020/12/07 19:03:56;;;;;;;3.47;2.60;;;17.90;33.90;;;;;;8281773;28;20114;-47
2020/12/07 19:07:56;;;;;;;3.30;2.70;;;17.90;33.80;;;;;;8275721;28;20038;-46
2020/12/07 19:11:58;;;;;;;4.37;2.67;;;17.90;33.90;;;;;;8271778;28;20423;-47
2020/12/07 19:15:58;;;;;;;2.80;2.47;;;18.00;33.80;;;;;;8261615;28;20069;-47
2020/12/07 19:19:59;;;;;;;3.73;2.43;;;18.00;33.80;;;;;;8291545;28;20034;-47
2020/12/07 19:24:00;;;;;;;3.80;2.43;;;18.00;34.30;;;;;;8295555;28;20030;-47
2020/12/07 19:28:00;;;;;;;2.60;2.38;;;18.00;33.70;;;;;;8260553;28;20048;-49
2020/12/07 19:32:02;;;;;;;3.93;2.80;;;18.00;33.80;;;;;;8258812;28;20380;-47
2020/12/07 19:36:03;;;;;;;2.97;2.35;;;18.00;33.70;;;;;;8274250;28;20053;-47
2020/12/07 19:40:04;;;;;;;4.15;2.67;;;18.00;33.80;;;;;;8298997;28;20398;-47
2020/12/07 19:44:06;;;;;;;3.72;3.20;;;17.90;33.70;;;;;;8301212;28;20112;-46
2020/12/07 19:48:06;;;;;;;3.75;2.70;;;17.90;33.70;;;;;;8275822;28;20222;-48
2020/12/07 19:52:07;;;;;;;3.73;2.30;;;17.90;33.80;;;;;;8268016;28;20518;-46
2020/12/07 19:56:07;;;;;;;3.67;2.67;;;17.90;33.80;;;;;;8296645;28;20474;-46
2020/12/07 20:00:10;;;;;;;3.13;2.93;;;17.90;33.80;;;;;;8300560;28;20088;-46
2020/12/07 20:04:11;;;;;;;3.60;3.10;;;17.90;33.80;;;;;;8294628;28;20490;-48
2020/12/07 20:08:12;;;;;;;3.97;2.90;;;17.80;33.80;;;;;;8295994;28;20058;-46
2020/12/07 20:12:12;;;;;;;3.70;3.13;;;17.80;33.80;;;;;;8295696;28;20513;-52
2020/12/07 20:16:26;;;;;;;3.57;2.97;;;17.80;34.40;;;;;;8298516;28;20465;-48
2020/12/07 20:20:26;;;;;;;3.50;2.90;;;17.80;33.90;;;;;;8299903;28;20104;-46
2020/12/07 20:24:27;;;;;;;3.27;2.80;;;17.80;33.90;;;;;;8293247;28;20034;-44
2020/12/07 20:28:27;;;;;;;4.57;3.00;;;17.80;33.80;;;;;;8295696;28;20046;-47
2020/12/07 20:32:29;;;;;;;4.17;3.03;;;17.90;33.90;;;;;;8294901;28;20045;-45
2020/12/07 20:36:30;;;;;;;3.10;2.65;;;17.90;33.80;;;;;;8297032;28;20395;-45
2020/12/07 20:40:30;;;;;;;3.63;2.90;;;17.90;33.80;;;;;;8260771;28;20038;-46
2020/12/07 20:44:31;;;;;;;4.23;3.10;;;17.90;33.80;;;;;;8262076;28;20034;-49
2020/12/07 20:48:32;;;;;;;3.80;3.13;;;18.00;33.80;;;;;;8261315;28;20050;-46
2020/12/07 20:52:34;;;;;;;4.03;2.93;;;18.00;33.80;;;;;;8299071;28;20030;-47
2020/12/07 20:56:34;;;;;;;5.22;3.05;;;18.00;33.70;;;;;;8277361;28;20743;-46
2020/12/07 21:00:35;;;;;;;3.37;2.70;;;18.00;33.70;;;;;;8285002;28;20131;-46
2020/12/07 21:04:37;;;;;;;4.47;3.23;;;18.00;33.70;;;;;;8294362;28;20125;-46
2020/12/07 21:08:38;;;;;;;4.47;3.17;;;18.00;33.70;;;;;;8276172;28;20061;-47
2020/12/07 21:12:39;;;;;;;4.47;3.33;;;18.00;33.70;;;;;;8264355;28;20030;-47
2020/12/07 21:16:39;;;;;;;4.93;3.57;;;18.00;33.70;;;;;;8271434;28;20041;-47
2020/12/07 21:20:40;;;;;;;4.33;3.50;;;17.90;33.60;;;;;;8275450;28;20034;-46
2020/12/07 21:24:40;;;;;;;4.50;3.43;;;17.90;33.60;;;;;;8261271;28;20038;-47
2020/12/07 21:28:41;;;;;;;5.27;3.33;;;17.90;33.70;;;;;;8297568;28;20073;-47
2020/12/07 21:32:43;;;;;;;4.87;3.37;;;17.90;33.70;;;;;;8293550;28;20434;-47
2020/12/07 21:36:44;;;;;;;4.05;3.22;;;17.90;33.70;;;;;;8291369;28;20052;-47
2020/12/07 21:40:45;;;;;;;4.00;3.13;;;17.90;33.70;;;;;;8293146;28;20026;-47
2020/12/07 21:44:46;;;;;;;4.38;3.65;;;17.90;33.70;;;;;;8293990;28;20159;-47
2020/12/07 21:48:46;;;;;;;3.87;3.40;;;17.90;33.70;;;;;;8291869;28;20491;-47
2020/12/07 21:52:47;;;;;;;5.73;3.13;;;17.90;33.80;;;;;;8260317;28;20045;-51
2020/12/07 21:56:47;;;;;;;4.00;3.33;;;17.80;33.70;;;;;;8260089;28;20042;-47
2020/12/07 22:00:48;;;;;;;4.50;3.30;;;17.80;33.70;;;;;;8285673;28;20049;-46
2020/12/07 22:04:48;;;;;;;5.43;3.60;;;17.80;33.70;;;;;;8297021;28;20048;-47
2020/12/07 22:08:49;;;;;;;5.57;3.53;;;17.90;33.70;;;;;;8292517;28;20084;-46